createdAt,value
2023-07-31T00:04:00.552Z,98071.78
2023-07-31T00:09:24.494Z,98064.13
2023-07-31T00:14:58.528Z,98061.25
2023-07-31T00:20:23.525Z,98060.84
2023-07-31T00:25:54.543Z,98048.97
2023-07-31T00:31:22.536Z,98058.53
2023-07-31T00:36:47.536Z,98050.16
2023-07-31T00:42:12.525Z,98055.34
2023-07-31T00:47:39.540Z,98056.78
2023-07-31T00:53:04.559Z,98061.31
2023-07-31T00:58:28.568Z,98066.69
2023-07-31T01:03:56.539Z,98068.97
2023-07-31T01:09:28.512Z,98074.94
2023-07-31T01:15:08.516Z,98074.06
2023-07-31T01:20:37.533Z,98073.59
2023-07-31T01:26:19.527Z,98074.00
2023-07-31T01:31:47.527Z,98063.91
2023-07-31T01:37:13.554Z,98064.31
2023-07-31T01:42:41.609Z,98051.16
2023-07-31T01:48:06.565Z,98044.72
2023-07-31T01:53:31.595Z,98042.00
2023-07-31T01:58:58.592Z,98040.31
2023-07-31T02:04:23.602Z,98025.91
2023-07-31T02:09:47.569Z,98016.75
2023-07-31T02:15:22.592Z,98019.47
2023-07-31T02:20:47.601Z,98020.31
2023-07-31T02:26:11.598Z,98008.84
2023-07-31T02:31:39.665Z,98025.28
2023-07-31T02:37:03.564Z,98036.69
2023-07-31T02:42:28.592Z,98035.44
2023-07-31T02:47:55.616Z,98044.97
2023-07-31T02:53:20.558Z,98066.59
2023-07-31T02:58:44.612Z,98076.06
2023-07-31T03:04:12.625Z,98091.03
2023-07-31T03:09:36.631Z,98085.16
2023-07-31T03:15:07.750Z,98105.50
2023-07-31T03:20:35.588Z,98107.56
2023-07-31T03:26:13.580Z,98117.13
2023-07-31T03:31:38.667Z,98137.47
2023-07-31T03:37:05.658Z,98161.75
2023-07-31T03:42:30.627Z,98166.06
2023-07-31T03:47:54.666Z,98187.63
2023-07-31T03:53:23.630Z,98191.34
2023-07-31T03:58:47.609Z,98199.00
2023-07-31T04:04:12.621Z,98206.28
2023-07-31T04:09:42.658Z,98195.44
2023-07-31T04:15:07.640Z,98194.41
2023-07-31T04:20:32.660Z,98199.84
2023-07-31T04:26:06.630Z,98193.59
2023-07-31T04:31:31.770Z,98192.84
2023-07-31T04:36:55.639Z,98164.81
2023-07-31T04:42:23.736Z,98146.16
2023-07-31T04:47:47.687Z,98139.81
2023-07-31T04:53:12.650Z,98136.91
2023-07-31T04:58:39.667Z,98142.13
2023-07-31T05:04:04.724Z,98139.25
2023-07-31T05:09:22.684Z,98114.09
2023-07-31T05:14:49.697Z,98112.69
2023-07-31T05:20:16.709Z,98098.78
2023-07-31T05:25:47.721Z,98109.84
2023-07-31T05:31:15.663Z,98074.78
2023-07-31T05:36:39.846Z,98062.38
2023-07-31T05:42:04.719Z,98057.72
2023-07-31T05:47:31.727Z,98033.19
2023-07-31T05:52:56.672Z,98040.53
2023-07-31T05:58:20.731Z,98030.63
2023-07-31T06:03:48.871Z,98019.81
2023-07-31T06:09:13.721Z,98013.41
2023-07-31T06:14:38.689Z,98009.06
2023-07-31T06:20:05.719Z,98014.31
2023-07-31T06:25:36.777Z,97998.88
2023-07-31T06:31:01.904Z,97993.94
2023-07-31T06:36:29.710Z,97992.13
2023-07-31T06:41:55.725Z,97968.16
2023-07-31T06:47:20.733Z,97975.88
2023-07-31T06:52:48.745Z,97973.19
2023-07-31T06:58:13.740Z,97958.19
2023-07-31T07:03:38.757Z,97957.78
2023-07-31T07:09:05.747Z,97955.09
2023-07-31T07:14:30.734Z,97955.09
2023-07-31T07:19:57.714Z,97949.22
2023-07-31T07:25:25.798Z,97953.47
2023-07-31T07:30:49.843Z,97953.47
2023-07-31T07:36:17.779Z,97949.50
2023-07-31T07:41:44.741Z,97931.31
2023-07-31T07:47:09.731Z,97933.63
2023-07-31T07:52:33.784Z,97931.06
2023-07-31T07:58:01.780Z,97920.41
2023-07-31T08:03:27.855Z,97920.56
2023-07-31T08:08:53.247Z,97920.78
2023-07-31T08:14:21.790Z,97921.19
2023-07-31T08:19:46.798Z,97921.16
2023-07-31T08:25:13.783Z,97919.88
2023-07-31T08:30:41.790Z,97911.28
2023-07-31T08:36:06.810Z,97929.00
2023-07-31T08:41:33.988Z,97911.56
2023-07-31T08:47:02.795Z,97904.34
2023-07-31T08:52:27.816Z,97897.13
2023-07-31T08:57:54.793Z,97914.66
2023-07-31T09:03:26.396Z,97896.44
2023-07-31T09:08:51.821Z,97904.75
2023-07-31T09:14:18.817Z,97915.56
2023-07-31T09:19:47.864Z,97918.63
2023-07-31T09:25:25.793Z,97909.09
2023-07-31T09:31:02.816Z,97906.16
2023-07-31T09:36:36.859Z,97895.25
2023-07-31T09:42:05.862Z,97884.28
2023-07-31T09:47:34.896Z,97885.13
2023-07-31T09:53:02.831Z,97872.09
2023-07-31T09:58:28.842Z,97863.22
2023-07-31T10:03:54.833Z,97854.84
2023-07-31T10:09:26.871Z,97855.25
2023-07-31T10:14:52.882Z,97854.50
2023-07-31T10:20:19.985Z,97851.06
2023-07-31T10:25:48.854Z,97850.56
2023-07-31T10:31:14.906Z,97835.41
2023-07-31T10:36:39.160Z,97827.63
2023-07-31T10:42:06.994Z,97835.78
2023-07-31T10:47:31.953Z,97830.03
2023-07-31T10:53:01.926Z,97808.28
2023-07-31T10:58:29.878Z,97810.69
2023-07-31T11:03:59.998Z,97800.72
2023-07-31T11:09:29.895Z,97802.00
2023-07-31T11:15:04.947Z,97804.94
2023-07-31T11:20:29.876Z,97792.34
2023-07-31T11:25:54.914Z,97780.84
2023-07-31T11:31:23.276Z,97782.63
2023-07-31T11:36:47.951Z,97778.91
2023-07-31T11:42:15.928Z,97783.78
2023-07-31T11:47:44.956Z,97776.78
2023-07-31T11:53:15.911Z,97767.41
2023-07-31T11:58:41.927Z,97744.84
2023-07-31T12:04:10.000Z,97754.25
2023-07-31T12:09:34.938Z,97748.31
2023-07-31T12:14:58.932Z,97754.72
2023-07-31T12:20:26.936Z,97754.47
2023-07-31T12:25:52.063Z,97737.19
2023-07-31T12:31:18.033Z,97721.44
2023-07-31T12:36:47.948Z,97719.44
2023-07-31T12:42:13.026Z,97718.50
2023-07-31T12:47:38.001Z,97716.50
2023-07-31T12:53:05.984Z,97709.13
2023-07-31T12:58:31.028Z,97715.28
2023-07-31T13:03:57.166Z,97715.63
2023-07-31T13:09:25.020Z,97699.59
2023-07-31T13:14:53.745Z,97679.53
2023-07-31T13:20:17.948Z,97690.91
2023-07-31T13:25:46.072Z,97693.75
2023-07-31T13:31:11.022Z,97685.34
2023-07-31T13:36:36.001Z,97665.19
2023-07-31T13:42:03.404Z,97677.44
2023-07-31T13:47:28.439Z,97666.00
2023-07-31T13:52:53.072Z,97658.19
2023-07-31T13:58:21.005Z,97679.16
2023-07-31T14:03:47.524Z,97659.28
2023-07-31T14:09:13.030Z,97650.56
2023-07-31T14:14:42.070Z,97667.84
2023-07-31T14:20:07.556Z,97650.66
2023-07-31T14:25:32.047Z,97658.28
2023-07-31T14:31:00.039Z,97655.41
2023-07-31T14:36:24.008Z,97655.63
2023-07-31T14:41:49.387Z,97641.81
2023-07-31T14:47:17.024Z,97644.03
2023-07-31T14:52:42.127Z,97639.88
2023-07-31T14:58:07.221Z,97627.28
2023-07-31T15:03:35.219Z,97617.59
2023-07-31T15:09:00.079Z,97605.13
2023-07-31T15:14:25.091Z,97614.22
2023-07-31T15:19:52.053Z,97608.41
2023-07-31T15:25:19.061Z,97604.16
2023-07-31T15:30:43.114Z,97608.44
2023-07-31T15:36:11.290Z,97606.19
2023-07-31T15:41:37.126Z,97600.13
2023-07-31T15:47:02.076Z,97624.19
2023-07-31T15:52:29.228Z,97591.38
2023-07-31T15:57:54.095Z,97577.69
2023-07-31T16:03:19.271Z,97579.91
2023-07-31T16:08:49.084Z,97572.78
2023-07-31T16:14:13.127Z,97566.03
2023-07-31T16:19:39.102Z,97583.16
2023-07-31T16:25:06.126Z,97574.13
2023-07-31T16:30:31.096Z,97573.19
2023-07-31T16:35:55.131Z,97554.03
2023-07-31T16:41:23.136Z,97566.31
2023-07-31T16:46:47.146Z,97552.91
2023-07-31T16:52:12.158Z,97550.38
2023-07-31T16:57:40.338Z,97542.78
2023-07-31T17:03:05.342Z,97533.75
2023-07-31T17:08:29.131Z,97528.28
2023-07-31T17:13:57.984Z,97539.44
2023-07-31T17:19:23.151Z,97528.50
2023-07-31T17:24:49.143Z,97529.38
2023-07-31T17:30:16.291Z,97533.16
2023-07-31T17:35:41.183Z,97527.09
2023-07-31T17:41:08.190Z,97524.84
2023-07-31T17:46:36.180Z,97524.53
2023-07-31T17:52:00.127Z,97512.41
2023-07-31T17:57:25.155Z,97513.97
2023-07-31T18:02:52.302Z,97519.78
2023-07-31T18:08:17.229Z,97515.66
2023-07-31T18:13:41.173Z,97505.19
2023-07-31T18:19:09.178Z,97502.97
2023-07-31T18:24:40.184Z,97509.97
2023-07-31T18:30:05.191Z,97510.94
2023-07-31T18:35:32.206Z,97491.47
2023-07-31T18:40:57.211Z,97494.59
2023-07-31T18:46:22.248Z,97467.41
2023-07-31T18:51:50.196Z,97463.50
2023-07-31T18:57:14.255Z,97462.94
2023-07-31T19:02:32.203Z,97454.38
2023-07-31T19:08:00.244Z,97456.75
2023-07-31T19:13:24.293Z,97466.28
2023-07-31T19:18:49.215Z,97464.63
2023-07-31T19:24:17.201Z,97468.06
2023-07-31T19:29:42.215Z,97464.16
2023-07-31T19:35:08.253Z,97464.66
2023-07-31T19:40:36.222Z,97460.72
2023-07-31T19:46:01.346Z,97450.28
2023-07-31T19:51:26.241Z,97447.22
2023-07-31T19:56:53.313Z,97455.66
2023-07-31T20:02:19.258Z,97446.88
2023-07-31T20:07:44.279Z,97435.56
2023-07-31T20:13:12.397Z,97444.22
2023-07-31T20:18:37.256Z,97422.06
2023-07-31T20:24:02.366Z,97404.50
2023-07-31T20:29:29.269Z,97414.22
2023-07-31T20:34:54.250Z,97428.69
2023-07-31T20:40:23.466Z,97424.56
2023-07-31T20:45:51.513Z,97419.94
2023-07-31T20:51:17.177Z,97410.94
2023-07-31T20:56:43.329Z,97424.78
2023-07-31T21:02:10.776Z,97417.69
2023-07-31T21:07:35.273Z,97423.47
2023-07-31T21:13:01.278Z,97419.38
2023-07-31T21:18:29.345Z,97433.16
2023-07-31T21:23:54.302Z,97428.25
2023-07-31T21:29:25.338Z,97427.88
2023-07-31T21:34:54.296Z,97428.81
2023-07-31T21:40:20.293Z,97431.00
2023-07-31T21:45:51.333Z,97432.16
2023-07-31T21:51:19.320Z,97426.56
2023-07-31T21:56:44.311Z,97415.09
2023-07-31T22:02:09.617Z,97421.19
2023-07-31T22:07:37.328Z,97422.69
2023-07-31T22:13:02.322Z,97414.75
2023-07-31T22:18:29.613Z,97407.47
2023-07-31T22:23:57.592Z,97381.19
2023-07-31T22:29:29.330Z,97378.31
2023-07-31T22:34:55.334Z,97374.19
2023-07-31T22:40:25.363Z,97371.53
2023-07-31T22:45:55.379Z,97377.41
2023-07-31T22:51:21.359Z,97358.25
2023-07-31T22:56:49.369Z,97356.78
2023-07-31T23:02:16.851Z,97351.22
2023-07-31T23:07:42.491Z,97337.63
2023-07-31T23:13:09.408Z,97328.00
2023-07-31T23:18:34.351Z,97332.84
2023-07-31T23:23:58.368Z,97328.91
2023-07-31T23:29:33.440Z,97313.44
2023-07-31T23:34:58.373Z,97292.78
2023-07-31T23:40:24.580Z,97277.28
2023-07-31T23:45:52.446Z,97265.34
2023-07-31T23:51:17.448Z,97259.31
2023-07-31T23:56:42.742Z,97261.41
